Delta Reefer — D6EW9 — position and weather

sailwx.info

Track history (hours):
 
Tides and Currents Weather Stations Pressure Air Temp Water Temp Dewpoint Dewpoint Depression Visibility Wind Speed Wind Dir Waves Ship Positions

Delta Reefer

Last reported at 2017-Dec-25 15:20 UTC. Time now 2018-Jan-19 13:34 UTC.
Position S 05°05' E 011°14'.
Warning: this ship's position is 24 days out of date.

Length 90 m; draft 4.8 m.

Type: Cargo ship. MMSI: 616757000.

Date/timePositionNaut miles runAvg speedWind from/ knotsBaromVisibWave heightAir tempDewpointWater temp
2017-Dec-25 15:20S 05°05' E 011°14'1 2.3
2017-Dec-25 15:00S 05°04' E 011°14'1 2.3
2017-Dec-25 14:30S 05°03' E 011°15'2 2.3
2017-Dec-25 13:50S 05°02' E 011°17'1 2.2
2017-Dec-25 13:30S 05°02' E 011°17'3 0.8
2017-Dec-25 10:13S 05°04' E 011°19'2 7.1
2017-Dec-25 10:00S 05°06' E 011°18'4 7.2
2017-Dec-25 09:30S 05°09' E 011°18'4 7.3
2017-Dec-25 09:00S 05°13' E 011°18'4 7.3
2017-Dec-25 08:30S 05°17' E 011°19'4 7.2
2017-Dec-25 08:00S 05°20' E 011°19'3 7.1
2017-Dec-25 07:30S 05°24' E 011°19'3 6.8
2017-Dec-25 07:00S 05°27' E 011°19'3 6.4
2017-Dec-25 06:30S 05°30' E 011°20'3 6.6
2017-Dec-25 06:00S 05°34' E 011°20'3 6.3
2017-Dec-25 05:30S 05°37' E 011°20'  
Track history (hours):
 
Tides and Currents Weather Stations Pressure Air Temp Water Temp Dewpoint Dewpoint Depression Visibility Wind Speed Wind Dir Waves Ship Positions

Delta Reefer

Last reported at 2017-Dec-25 15:20 UTC. Time now 2018-Jan-19 13:34 UTC.
Position S 05°05' E 011°14'.
Warning: this ship's position is 24 days out of date.

Length 90 m; draft 4.8 m.

Type: Cargo ship. MMSI: 616757000.

Date/timePositionNaut miles runAvg speedWind from/ knotsBaromVisibWave heightAir tempDewpointWater temp
2017-Dec-25 15:20S 05°05' E 011°14'1 2.3
2017-Dec-25 15:00S 05°04' E 011°14'1 2.3
2017-Dec-25 14:30S 05°03' E 011°15'2 2.3
2017-Dec-25 13:50S 05°02' E 011°17'1 2.2
2017-Dec-25 13:30S 05°02' E 011°17'3 0.8
2017-Dec-25 10:13S 05°04' E 011°19'2 7.1
2017-Dec-25 10:00S 05°06' E 011°18'4 7.2
2017-Dec-25 09:30S 05°09' E 011°18'4 7.3
2017-Dec-25 09:00S 05°13' E 011°18'4 7.3
2017-Dec-25 08:30S 05°17' E 011°19'4 7.2
2017-Dec-25 08:00S 05°20' E 011°19'3 7.1
2017-Dec-25 07:30S 05°24' E 011°19'3 6.8
2017-Dec-25 07:00S 05°27' E 011°19'3 6.4
2017-Dec-25 06:30S 05°30' E 011°20'3 6.6
2017-Dec-25 06:00S 05°34' E 011°20'3 6.3
2017-Dec-25 05:30S 05°37' E 011°20'  

Dump ship's entire track history